sensor_id;sensor_type;location;lat;lon;timestamp;pressure;altitude;pressure_sealevel;temperature;humidity
60437;BME280;46289;51.992;4.498;2023-04-15T00:00:30;101029.25;;;8.99;62.95
60437;BME280;46289;51.992;4.498;2023-04-15T00:02:35;101038.94;;;8.97;63.31
60437;BME280;46289;51.992;4.498;2023-04-15T00:04:43;101034.63;;;8.94;62.88
60437;BME280;46289;51.992;4.498;2023-04-15T00:06:51;101034.50;;;8.99;63.00
60437;BME280;46289;51.992;4.498;2023-04-15T00:08:56;101038.09;;;8.95;62.53
60437;BME280;46289;51.992;4.498;2023-04-15T00:11:02;101033.78;;;8.94;62.63
60437;BME280;46289;51.992;4.498;2023-04-15T00:13:07;101044.13;;;8.98;62.66
60437;BME280;46289;51.992;4.498;2023-04-15T00:15:12;101036.41;;;8.94;62.39
60437;BME280;46289;51.992;4.498;2023-04-15T00:17:20;101034.63;;;8.94;62.80
60437;BME280;46289;51.992;4.498;2023-04-15T00:19:25;101031.25;;;8.91;63.05
60437;BME280;46289;51.992;4.498;2023-04-15T00:21:34;101039.03;;;8.94;62.73
60437;BME280;46289;51.992;4.498;2023-04-15T00:23:39;101038.31;;;8.89;62.85
60437;BME280;46289;51.992;4.498;2023-04-15T00:25:51;101044.47;;;8.88;62.55
60437;BME280;46289;51.992;4.498;2023-04-15T00:27:56;101042.91;;;8.81;63.13
60437;BME280;46289;51.992;4.498;2023-04-15T00:30:02;101047.31;;;8.80;63.26
60437;BME280;46289;51.992;4.498;2023-04-15T00:32:08;101051.31;;;8.92;62.20
60437;BME280;46289;51.992;4.498;2023-04-15T00:34:12;101050.56;;;8.88;61.97
60437;BME280;46289;51.992;4.498;2023-04-15T00:36:19;101045.31;;;8.88;62.55
60437;BME280;46289;51.992;4.498;2023-04-15T00:38:30;101043.50;;;8.90;62.17
60437;BME280;46289;51.992;4.498;2023-04-15T00:40:36;101052.09;;;8.95;61.77
60437;BME280;46289;51.992;4.498;2023-04-15T00:42:42;101047.75;;;8.94;61.63
60437;BME280;46289;51.992;4.498;2023-04-15T00:44:47;101048.59;;;8.95;61.49
60437;BME280;46289;51.992;4.498;2023-04-15T00:46:53;101041.13;;;8.83;62.05
60437;BME280;46289;51.992;4.498;2023-04-15T00:48:58;101038.28;;;8.90;61.71
60437;BME280;46289;51.992;4.498;2023-04-15T00:51:03;101041.13;;;8.83;62.10
60437;BME280;46289;51.992;4.498;2023-04-15T00:53:09;101043.66;;;8.86;62.11
60437;BME280;46289;51.992;4.498;2023-04-15T00:55:14;101037.59;;;8.84;61.88
60437;BME280;46289;51.992;4.498;2023-04-15T00:57:21;101044.78;;;8.77;62.39
60437;BME280;46289;51.992;4.498;2023-04-15T00:59:26;101043.25;;;8.70;62.42
60437;BME280;46289;51.992;4.498;2023-04-15T01:01:33;101039.88;;;8.66;62.61
60437;BME280;46289;51.992;4.498;2023-04-15T01:03:39;101038.22;;;8.62;63.24
60437;BME280;46289;51.992;4.498;2023-04-15T01:05:44;101040.09;;;8.59;62.94
60437;BME280;46289;51.992;4.498;2023-04-15T01:07:50;101049.56;;;8.63;62.73
60437;BME280;46289;51.992;4.498;2023-04-15T01:09:55;101050.50;;;8.60;62.98
60437;BME280;46289;51.992;4.498;2023-04-15T01:12:03;101049.88;;;8.52;63.25
60437;BME280;46289;51.992;4.498;2023-04-15T01:14:09;101043.03;;;8.48;63.18
60437;BME280;46289;51.992;4.498;2023-04-15T01:16:15;101048.31;;;8.45;63.63
60437;BME280;46289;51.992;4.498;2023-04-15T01:18:20;101045.78;;;8.42;63.65
60437;BME280;46289;51.992;4.498;2023-04-15T01:20:26;101054.56;;;8.41;63.41
60437;BME280;46289;51.992;4.498;2023-04-15T01:22:32;101058.22;;;8.33;63.78
60437;BME280;46289;51.992;4.498;2023-04-15T01:24:38;101048.75;;;8.28;63.70
60437;BME280;46289;51.992;4.498;2023-04-15T01:26:49;101047.81;;;8.30;63.79
60437;BME280;46289;51.992;4.498;2023-04-15T01:28:54;101049.81;;;8.22;64.09
60437;BME280;46289;51.992;4.498;2023-04-15T01:31:06;101054.09;;;8.25;63.76
60437;BME280;46289;51.992;4.498;2023-04-15T01:33:11;101048.75;;;8.28;63.75
60437;BME280;46289;51.992;4.498;2023-04-15T01:35:17;101035.72;;;8.26;64.21
60437;BME280;46289;51.992;4.498;2023-04-15T01:37:25;101052.34;;;8.24;64.13
60437;BME280;46289;51.992;4.498;2023-04-15T01:39:30;101039.31;;;8.22;63.86
60437;BME280;46289;51.992;4.498;2023-04-15T01:41:37;101052.41;;;8.22;64.22
60437;BME280;46289;51.992;4.498;2023-04-15T01:43:45;101048.00;;;8.24;64.15
60437;BME280;46289;51.992;4.498;2023-04-15T01:45:51;101045.50;;;8.20;64.34
60437;BME280;46289;51.992;4.498;2023-04-15T01:47:56;101043.72;;;8.22;64.04
60437;BME280;46289;51.992;4.498;2023-04-15T01:50:01;101048.03;;;8.23;64.53
60437;BME280;46289;51.992;4.498;2023-04-15T01:52:08;101048.06;;;8.21;64.59
60437;BME280;46289;51.992;4.498;2023-04-15T01:54:13;101054.13;;;8.23;64.76
60437;BME280;46289;51.992;4.498;2023-04-15T01:56:21;101055.19;;;8.16;64.78
60437;BME280;46289;51.992;4.498;2023-04-15T01:58:27;101063.19;;;8.11;65.20
60437;BME280;46289;51.992;4.498;2023-04-15T02:00:35;101054.41;;;8.12;65.52
60437;BME280;46289;51.992;4.498;2023-04-15T02:02:40;101057.16;;;8.08;65.49
60437;BME280;46289;51.992;4.498;2023-04-15T02:04:45;101059.84;;;8.05;65.77
60437;BME280;46289;51.992;4.498;2023-04-15T02:06:51;101056.47;;;8.01;66.18
60437;BME280;46289;51.992;4.498;2023-04-15T02:08:56;101055.53;;;8.04;66.14
60437;BME280;46289;51.992;4.498;2023-04-15T02:11:02;101051.25;;;8.00;66.21
60437;BME280;46289;51.992;4.498;2023-04-15T02:13:07;101053.13;;;7.96;66.50
60437;BME280;46289;51.992;4.498;2023-04-15T02:15:13;101059.19;;;7.97;66.95
60437;BME280;46289;51.992;4.498;2023-04-15T02:17:23;101055.81;;;7.93;67.14
60437;BME280;46289;51.992;4.498;2023-04-15T02:19:29;101059.13;;;8.00;67.26
60437;BME280;46289;51.992;4.498;2023-04-15T02:21:34;101064.44;;;7.97;67.06
60437;BME280;46289;51.992;4.498;2023-04-15T02:23:40;101057.53;;;7.94;67.31
60437;BME280;46289;51.992;4.498;2023-04-15T02:25:45;101059.97;;;8.00;67.34
60437;BME280;46289;51.992;4.498;2023-04-15T02:27:56;101067.13;;;7.94;67.68
60437;BME280;46289;51.992;4.498;2023-04-15T02:30:01;101059.41;;;7.89;67.80
60437;BME280;46289;51.992;4.498;2023-04-15T02:32:06;101063.81;;;7.87;67.76
60437;BME280;46289;51.992;4.498;2023-04-15T02:34:15;101069.84;;;7.90;67.84
60437;BME280;46289;51.992;4.498;2023-04-15T02:36:20;101068.94;;;7.91;67.60
60437;BME280;46289;51.992;4.498;2023-04-15T02:38:25;101076.00;;;7.88;67.73
60437;BME280;46289;51.992;4.498;2023-04-15T02:40:33;101073.53;;;7.82;68.50
60437;BME280;46289;51.992;4.498;2023-04-15T02:42:41;101079.84;;;7.75;68.41
60437;BME280;46289;51.992;4.498;2023-04-15T02:44:48;101082.31;;;7.79;68.46
60437;BME280;46289;51.992;4.498;2023-04-15T02:46:55;101085.06;;;7.75;68.36
60437;BME280;46289;51.992;4.498;2023-04-15T02:49:00;101085.00;;;7.76;68.83
60437;BME280;46289;51.992;4.498;2023-04-15T02:51:16;101087.63;;;7.76;69.11
60437;BME280;46289;51.992;4.498;2023-04-15T02:53:27;101086.00;;;7.72;69.03
60437;BME280;46289;51.992;4.498;2023-04-15T02:55:32;101088.75;;;7.66;69.19
60437;BME280;46289;51.992;4.498;2023-04-15T02:57:37;101094.13;;;7.60;69.68
60437;BME280;46289;51.992;4.498;2023-04-15T02:59:42;101097.66;;;7.59;70.04
60437;BME280;46289;51.992;4.498;2023-04-15T03:01:48;101103.84;;;7.55;70.48
60437;BME280;46289;51.992;4.498;2023-04-15T03:03:53;101107.44;;;7.51;70.41
60437;BME280;46289;51.992;4.498;2023-04-15T03:05:58;101111.00;;;7.48;70.66
60437;BME280;46289;51.992;4.498;2023-04-15T03:08:05;101112.78;;;7.44;71.04
60437;BME280;46289;51.992;4.498;2023-04-15T03:10:11;101108.56;;;7.39;70.96
60437;BME280;46289;51.992;4.498;2023-04-15T03:12:16;101110.41;;;7.35;71.42
60437;BME280;46289;51.992;4.498;2023-04-15T03:14:21;101109.66;;;7.30;71.43
60437;BME280;46289;51.992;4.498;2023-04-15T03:16:26;101116.72;;;7.25;71.60
60437;BME280;46289;51.992;4.498;2023-04-15T03:18:31;101120.28;;;7.21;71.66
60437;BME280;46289;51.992;4.498;2023-04-15T03:20:38;101119.59;;;7.13;71.72
60437;BME280;46289;51.992;4.498;2023-04-15T03:22:43;101116.38;;;7.01;72.12
60437;BME280;46289;51.992;4.498;2023-04-15T03:24:51;101122.59;;;6.94;72.19
60437;BME280;46289;51.992;4.498;2023-04-15T03:26:56;101134.81;;;6.95;72.15
60437;BME280;46289;51.992;4.498;2023-04-15T03:29:02;101133.22;;;6.87;72.32
60437;BME280;46289;51.992;4.498;2023-04-15T03:31:07;101131.59;;;6.81;72.78
60437;BME280;46289;51.992;4.498;2023-04-15T03:33:13;101134.34;;;6.75;72.93
60437;BME280;46289;51.992;4.498;2023-04-15T03:35:20;101137.00;;;6.72;73.08
60437;BME280;46289;51.992;4.498;2023-04-15T03:37:25;101145.06;;;6.61;73.40
60437;BME280;46289;51.992;4.498;2023-04-15T03:39:30;101144.38;;;6.51;73.30
60437;BME280;46289;51.992;4.498;2023-04-15T03:41:37;101145.28;;;6.49;73.86
60437;BME280;46289;51.992;4.498;2023-04-15T03:43:43;101149.81;;;6.39;74.13
60437;BME280;46289;51.992;4.498;2023-04-15T03:45:50;101143.81;;;6.34;74.40
60437;BME280;46289;51.992;4.498;2023-04-15T03:47:55;101154.38;;;6.26;74.52
60437;BME280;46289;51.992;4.498;2023-04-15T03:50:20;101157.88;;;6.25;74.81
60437;BME280;46289;51.992;4.498;2023-04-15T03:52:25;101164.03;;;6.21;75.39
60437;BME280;46289;51.992;4.498;2023-04-15T03:54:31;101162.31;;;6.22;75.20
60437;BME280;46289;51.992;4.498;2023-04-15T03:56:38;101169.28;;;6.20;75.47
60437;BME280;46289;51.992;4.498;2023-04-15T03:58:43;101170.94;;;6.25;75.12
60437;BME280;46289;51.992;4.498;2023-04-15T04:00:51;101165.72;;;6.24;75.21
60437;BME280;46289;51.992;4.498;2023-04-15T04:02:56;101166.69;;;6.20;75.13
60437;BME280;46289;51.992;4.498;2023-04-15T04:05:03;101168.47;;;6.18;75.38
60437;BME280;46289;51.992;4.498;2023-04-15T04:07:08;101179.72;;;6.20;75.51
60437;BME280;46289;51.992;4.498;2023-04-15T04:09:19;101180.72;;;6.14;76.11
60437;BME280;46289;51.992;4.498;2023-04-15T04:11:24;101176.41;;;6.11;75.93
60437;BME280;46289;51.992;4.498;2023-04-15T04:13:32;101179.09;;;6.05;75.97
60437;BME280;46289;51.992;4.498;2023-04-15T04:15:37;101180.06;;;6.00;76.83
60437;BME280;46289;51.992;4.498;2023-04-15T04:17:43;101187.00;;;6.01;76.31
60437;BME280;46289;51.992;4.498;2023-04-15T04:19:49;101192.31;;;5.94;76.51
60437;BME280;46289;51.992;4.498;2023-04-15T04:21:54;101193.22;;;5.90;76.54
60437;BME280;46289;51.992;4.498;2023-04-15T04:23:59;101204.56;;;5.88;76.69
60437;BME280;46289;51.992;4.498;2023-04-15T04:26:04;101195.91;;;5.86;76.62
60437;BME280;46289;51.992;4.498;2023-04-15T04:28:10;101198.50;;;5.87;77.19
60437;BME280;46289;51.992;4.498;2023-04-15T04:30:19;101203.63;;;5.93;77.13
60437;BME280;46289;51.992;4.498;2023-04-15T04:32:25;101213.25;;;5.87;77.84
60437;BME280;46289;51.992;4.498;2023-04-15T04:34:31;101216.72;;;5.89;77.07
60437;BME280;46289;51.992;4.498;2023-04-15T04:36:36;101210.69;;;5.85;77.81
60437;BME280;46289;51.992;4.498;2023-04-15T04:38:41;101224.59;;;5.86;77.72
60437;BME280;46289;51.992;4.498;2023-04-15T04:40:46;101220.16;;;5.89;77.73
60437;BME280;46289;51.992;4.498;2023-04-15T04:42:51;101221.06;;;5.87;77.86
60437;BME280;46289;51.992;4.498;2023-04-15T04:44:56;101233.22;;;5.89;77.90
60437;BME280;46289;51.992;4.498;2023-04-15T04:47:03;101228.94;;;5.85;78.04
60437;BME280;46289;51.992;4.498;2023-04-15T04:49:08;101238.47;;;5.88;78.42
60437;BME280;46289;51.992;4.498;2023-04-15T04:51:15;101246.25;;;5.91;78.32
60437;BME280;46289;51.992;4.498;2023-04-15T04:53:20;101247.97;;;5.93;78.09
60437;BME280;46289;51.992;4.498;2023-04-15T04:55:25;101244.47;;;5.93;78.26
60437;BME280;46289;51.992;4.498;2023-04-15T04:57:30;101254.00;;;5.99;78.16
60437;BME280;46289;51.992;4.498;2023-04-15T04:59:36;101249.63;;;5.98;77.94
60437;BME280;46289;51.992;4.498;2023-04-15T05:01:41;101254.91;;;5.96;78.37
60437;BME280;46289;51.992;4.498;2023-04-15T05:03:52;101257.50;;;5.94;78.30
60437;BME280;46289;51.992;4.498;2023-04-15T05:05:58;101261.91;;;5.91;78.61
60437;BME280;46289;51.992;4.498;2023-04-15T05:08:04;101267.97;;;5.93;78.63
60437;BME280;46289;51.992;4.498;2023-04-15T05:10:09;101277.53;;;5.92;78.80
60437;BME280;46289;51.992;4.498;2023-04-15T05:12:19;101274.06;;;5.95;78.58
60437;BME280;46289;51.992;4.498;2023-04-15T05:14:24;101281.88;;;5.93;78.71
60437;BME280;46289;51.992;4.498;2023-04-15T05:16:29;101278.41;;;5.91;78.56
60437;BME280;46289;51.992;4.498;2023-04-15T05:18:34;101279.31;;;5.89;78.49
60437;BME280;46289;51.992;4.498;2023-04-15T05:20:42;101296.69;;;5.90;78.97
60437;BME280;46289;51.992;4.498;2023-04-15T05:22:49;101292.31;;;5.92;79.13
60437;BME280;46289;51.992;4.498;2023-04-15T05:24:54;101299.25;;;5.96;79.60
60437;BME280;46289;51.992;4.498;2023-04-15T05:26:59;101308.78;;;5.97;79.06
60437;BME280;46289;51.992;4.498;2023-04-15T05:29:05;101305.25;;;6.01;79.16
60437;BME280;46289;51.992;4.498;2023-04-15T05:31:10;101317.34;;;6.08;79.31
60437;BME280;46289;51.992;4.498;2023-04-15T05:33:15;101312.88;;;6.17;78.64
60437;BME280;46289;51.992;4.498;2023-04-15T05:35:20;101324.88;;;6.28;78.45
60437;BME280;46289;51.992;4.498;2023-04-15T05:37:28;101336.03;;;6.38;78.51
60437;BME280;46289;51.992;4.498;2023-04-15T05:39:33;101332.47;;;6.45;78.17
60437;BME280;46289;51.992;4.498;2023-04-15T05:41:41;101333.94;;;6.60;77.75
60437;BME280;46289;51.992;4.498;2023-04-15T05:43:46;101337.16;;;6.76;77.07
60437;BME280;46289;51.992;4.498;2023-04-15T05:45:52;101351.75;;;6.89;77.16
60437;BME280;46289;51.992;4.498;2023-04-15T05:47:58;101345.47;;;6.99;76.50
60437;BME280;46289;51.992;4.498;2023-04-15T05:50:04;101346.19;;;7.09;76.53
60437;BME280;46289;51.992;4.498;2023-04-15T05:52:09;101356.44;;;7.20;75.97
60437;BME280;46289;51.992;4.498;2023-04-15T05:54:21;101357.88;;;7.36;75.45
60437;BME280;46289;51.992;4.498;2023-04-15T05:56:28;101362.88;;;7.47;75.31
60437;BME280;46289;51.992;4.498;2023-04-15T05:58:33;101369.59;;;7.62;74.89
60437;BME280;46289;51.992;4.498;2023-04-15T06:00:38;101376.44;;;7.69;74.40
60437;BME280;46289;51.992;4.498;2023-04-15T06:02:43;101378.84;;;7.78;74.40
60437;BME280;46289;51.992;4.498;2023-04-15T06:04:51;101385.47;;;7.95;73.64
60437;BME280;46289;51.992;4.498;2023-04-15T06:06:56;101380.91;;;8.06;73.16
60437;BME280;46289;51.992;4.498;2023-04-15T06:09:01;101392.38;;;7.99;73.59
60437;BME280;46289;51.992;4.498;2023-04-15T06:11:09;101387.72;;;8.13;73.35
60437;BME280;46289;51.992;4.498;2023-04-15T06:13:14;101398.78;;;8.26;72.75
60437;BME280;46289;51.992;4.498;2023-04-15T06:15:21;101399.53;;;8.32;72.96
60437;BME280;46289;51.992;4.498;2023-04-15T06:17:26;101410.50;;;8.50;72.41
60437;BME280;46289;51.992;4.498;2023-04-15T06:19:31;101414.59;;;8.62;71.71
60437;BME280;46289;51.992;4.498;2023-04-15T06:21:37;101421.63;;;8.61;71.89
60437;BME280;46289;51.992;4.498;2023-04-15T06:23:43;101417.69;;;8.79;71.18
60437;BME280;46289;51.992;4.498;2023-04-15T06:25:51;101429.06;;;8.78;70.98
60437;BME280;46289;51.992;4.498;2023-04-15T06:27:59;101426.09;;;8.93;70.99
60437;BME280;46289;51.992;4.498;2023-04-15T06:30:05;101433.41;;;9.16;70.24
60437;BME280;46289;51.992;4.498;2023-04-15T06:32:13;101440.44;;;9.13;70.23
60437;BME280;46289;51.992;4.498;2023-04-15T06:34:22;101439.63;;;9.11;70.63
60437;BME280;46289;51.992;4.498;2023-04-15T06:36:27;101444.38;;;9.31;70.18
60437;BME280;46289;51.992;4.498;2023-04-15T06:38:33;101449.34;;;9.41;69.32
60437;BME280;46289;51.992;4.498;2023-04-15T06:40:40;101447.63;;;9.40;69.34
60437;BME280;46289;51.992;4.498;2023-04-15T06:42:45;101456.16;;;9.49;69.32
60437;BME280;46289;51.992;4.498;2023-04-15T06:44:53;101452.41;;;9.59;68.77
60437;BME280;46289;51.992;4.498;2023-04-15T06:46:58;101455.81;;;9.61;69.05
60437;BME280;46289;51.992;4.498;2023-04-15T06:49:03;101462.88;;;9.92;67.75
60437;BME280;46289;51.992;4.498;2023-04-15T06:51:09;101460.91;;;10.00;67.71
60437;BME280;46289;51.992;4.498;2023-04-15T06:53:14;101465.19;;;10.02;68.01
60437;BME280;46289;51.992;4.498;2023-04-15T06:55:21;101457.59;;;10.24;67.62
60437;BME280;46289;51.992;4.498;2023-04-15T06:57:26;101460.97;;;10.29;67.19
60437;BME280;46289;51.992;4.498;2023-04-15T06:59:35;101466.66;;;10.44;66.68
60437;BME280;46289;51.992;4.498;2023-04-15T07:01:43;101471.34;;;10.64;66.40
60437;BME280;46289;51.992;4.498;2023-04-15T07:03:49;101470.34;;;10.94;65.88
60437;BME280;46289;51.992;4.498;2023-04-15T07:05:55;101478.47;;;10.87;65.61
60437;BME280;46289;51.992;4.498;2023-04-15T07:08:00;101476.66;;;10.89;65.53
60437;BME280;46289;51.992;4.498;2023-04-15T07:10:07;101479.41;;;10.86;65.07
60437;BME280;46289;51.992;4.498;2023-04-15T07:12:12;101483.88;;;11.10;64.70
60437;BME280;46289;51.992;4.498;2023-04-15T07:17:14;101486.22;;;11.19;63.75
60437;BME280;46289;51.992;4.498;2023-04-15T07:19:23;101492.47;;;11.42;63.73
60437;BME280;46289;51.992;4.498;2023-04-15T07:21:28;101488.69;;;11.24;63.80
60437;BME280;46289;51.992;4.498;2023-04-15T07:23:33;101499.66;;;11.37;63.78
60437;BME280;46289;51.992;4.498;2023-04-15T07:25:38;101503.22;;;11.36;63.12
60437;BME280;46289;51.992;4.498;2023-04-15T07:27:43;101503.91;;;11.41;63.49
60437;BME280;46289;51.992;4.498;2023-04-15T07:29:49;101505.75;;;11.91;62.16
60437;BME280;46289;51.992;4.498;2023-04-15T07:31:54;101518.94;;;11.64;62.61
60437;BME280;46289;51.992;4.498;2023-04-15T07:34:02;101517.66;;;11.76;62.38
60437;BME280;46289;51.992;4.498;2023-04-15T07:36:08;101522.31;;;11.94;62.03
60437;BME280;46289;51.992;4.498;2023-04-15T07:38:13;101522.34;;;11.93;61.71
60437;BME280;46289;51.992;4.498;2023-04-15T07:40:21;101525.50;;;12.04;61.87
60437;BME280;46289;51.992;4.498;2023-04-15T07:42:26;101532.06;;;12.41;61.53
60437;BME280;46289;51.992;4.498;2023-04-15T07:44:32;101526.53;;;12.23;61.07
60437;BME280;46289;51.992;4.498;2023-04-15T07:46:38;101531.56;;;12.53;60.74
60437;BME280;46289;51.992;4.498;2023-04-15T07:48:43;101532.63;;;12.72;60.16
60437;BME280;46289;51.992;4.498;2023-04-15T07:50:51;101532.75;;;12.91;59.87
60437;BME280;46289;51.992;4.498;2023-04-15T07:52:56;101543.19;;;12.94;59.84
60437;BME280;46289;51.992;4.498;2023-04-15T07:55:01;101550.50;;;12.88;59.96
60437;BME280;46289;51.992;4.498;2023-04-15T07:57:10;101545.28;;;13.08;59.87
60437;BME280;46289;51.992;4.498;2023-04-15T07:59:19;101547.47;;;12.97;59.31
60437;BME280;46289;51.992;4.498;2023-04-15T08:01:25;101564.00;;;13.02;59.30
60437;BME280;46289;51.992;4.498;2023-04-15T08:03:30;101558.41;;;13.10;59.00
60437;BME280;46289;51.992;4.498;2023-04-15T08:05:37;101564.44;;;13.13;59.79
60437;BME280;46289;51.992;4.498;2023-04-15T08:07:44;101568.91;;;13.35;59.45
60437;BME280;46289;51.992;4.498;2023-04-15T08:09:52;101577.84;;;13.31;59.04
60437;BME280;46289;51.992;4.498;2023-04-15T08:11:57;101582.56;;;13.23;59.27
60437;BME280;46289;51.992;4.498;2023-04-15T08:14:02;101584.84;;;13.54;58.95
60437;BME280;46289;51.992;4.498;2023-04-15T08:16:16;101587.81;;;13.46;58.34
60437;BME280;46289;51.992;4.498;2023-04-15T08:18:25;101595.63;;;13.48;58.94
60437;BME280;46289;51.992;4.498;2023-04-15T08:20:30;101589.72;;;13.85;58.44
60437;BME280;46289;51.992;4.498;2023-04-15T08:22:35;101594.38;;;13.78;58.12
60437;BME280;46289;51.992;4.498;2023-04-15T08:24:43;101594.22;;;14.03;57.49
60437;BME280;46289;51.992;4.498;2023-04-15T08:26:48;101598.19;;;13.93;57.44
60437;BME280;46289;51.992;4.498;2023-04-15T08:28:54;101604.72;;;13.63;56.91
60437;BME280;46289;51.992;4.498;2023-04-15T08:30:59;101615.84;;;13.71;56.84
60437;BME280;46289;51.992;4.498;2023-04-15T08:33:04;101613.81;;;13.77;56.50
60437;BME280;46289;51.992;4.498;2023-04-15T08:35:10;101611.94;;;13.79;56.42
60437;BME280;46289;51.992;4.498;2023-04-15T08:37:15;101614.84;;;13.73;57.25
60437;BME280;46289;51.992;4.498;2023-04-15T08:39:20;101623.84;;;13.90;57.35
60437;BME280;46289;51.992;4.498;2023-04-15T08:41:28;101619.88;;;14.22;56.75
60437;BME280;46289;51.992;4.498;2023-04-15T08:43:38;101624.88;;;14.28;56.18
60437;BME280;46289;51.992;4.498;2023-04-15T08:45:46;101630.88;;;14.32;55.86
60437;BME280;46289;51.992;4.498;2023-04-15T08:47:55;101635.25;;;13.70;55.95
60437;BME280;46289;51.992;4.498;2023-04-15T08:50:01;101635.03;;;13.96;55.81
60437;BME280;46289;51.992;4.498;2023-04-15T08:52:08;101648.53;;;13.90;56.25
60437;BME280;46289;51.992;4.498;2023-04-15T08:54:14;101642.66;;;14.04;56.17
60437;BME280;46289;51.992;4.498;2023-04-15T08:56:23;101655.28;;;14.18;54.68
60437;BME280;46289;51.992;4.498;2023-04-15T08:58:34;101651.56;;;14.42;54.79
60437;BME280;46289;51.992;4.498;2023-04-15T09:00:41;101659.63;;;14.39;54.07
60437;BME280;46289;51.992;4.498;2023-04-15T09:02:49;101665.38;;;14.49;53.20
60437;BME280;46289;51.992;4.498;2023-04-15T09:04:55;101658.38;;;14.27;53.54
60437;BME280;46289;51.992;4.498;2023-04-15T09:07:00;101663.72;;;14.05;53.47
60437;BME280;46289;51.992;4.498;2023-04-15T09:09:05;101669.66;;;14.11;53.81
60437;BME280;46289;51.992;4.498;2023-04-15T09:11:11;101668.94;;;14.48;53.00
60437;BME280;46289;51.992;4.498;2023-04-15T09:13:20;101673.19;;;14.32;52.84
60437;BME280;46289;51.992;4.498;2023-04-15T09:15:32;101663.44;;;14.54;52.73
60437;BME280;46289;51.992;4.498;2023-04-15T09:17:41;101669.03;;;15.06;51.84
60437;BME280;46289;51.992;4.498;2023-04-15T09:20:06;101673.53;;;14.85;50.94
60437;BME280;46289;51.992;4.498;2023-04-15T09:22:15;101676.53;;;14.97;50.71
60437;BME280;46289;51.992;4.498;2023-04-15T09:24:22;101678.97;;;15.20;50.29
60437;BME280;46289;51.992;4.498;2023-04-15T09:26:34;101683.63;;;15.15;49.24
60437;BME280;46289;51.992;4.498;2023-04-15T09:28:41;101682.53;;;15.57;49.37
60437;BME280;46289;51.992;4.498;2023-04-15T09:30:50;101701.44;;;15.68;48.66
60437;BME280;46289;51.992;4.498;2023-04-15T09:33:01;101696.28;;;15.65;48.75
60437;BME280;46289;51.992;4.498;2023-04-15T09:35:12;101696.22;;;15.48;49.09
60437;BME280;46289;51.992;4.498;2023-04-15T09:37:34;101710.25;;;15.12;46.58
60437;BME280;46289;51.992;4.498;2023-04-15T09:39:46;101713.59;;;14.97;45.83
60437;BME280;46289;51.992;4.498;2023-04-15T09:42:05;101705.00;;;14.91;46.15
60437;BME280;46289;51.992;4.498;2023-04-15T09:44:21;101722.31;;;14.99;45.06
60437;BME280;46289;51.992;4.498;2023-04-15T09:46:42;101720.59;;;14.98;45.81
60437;BME280;46289;51.992;4.498;2023-04-15T09:49:06;101720.84;;;15.12;45.74
60437;BME280;46289;51.992;4.498;2023-04-15T09:51:12;101730.00;;;14.84;43.62
60437;BME280;46289;51.992;4.498;2023-04-15T09:53:21;101732.94;;;14.78;43.60
60437;BME280;46289;51.992;4.498;2023-04-15T09:55:26;101733.59;;;14.83;44.33
60437;BME280;46289;51.992;4.498;2023-04-15T09:57:34;101729.28;;;15.20;44.81
60437;BME280;46289;51.992;4.498;2023-04-15T09:59:40;101732.78;;;15.21;45.74
60437;BME280;46289;51.992;4.498;2023-04-15T10:01:48;101737.38;;;15.17;46.85
60437;BME280;46289;51.992;4.498;2023-04-15T10:03:54;101732.28;;;15.31;45.93
60437;BME280;46289;51.992;4.498;2023-04-15T10:06:01;101737.09;;;15.23;44.30
60437;BME280;46289;51.992;4.498;2023-04-15T10:08:07;101744.91;;;15.06;44.80
60437;BME280;46289;51.992;4.498;2023-04-15T10:10:13;101739.72;;;14.63;45.95
60437;BME280;46289;51.992;4.498;2023-04-15T10:12:21;101735.28;;;14.84;44.97
60437;BME280;46289;51.992;4.498;2023-04-15T10:14:28;101744.25;;;15.40;45.57
60437;BME280;46289;51.992;4.498;2023-04-15T10:16:37;101742.44;;;15.80;43.88
60437;BME280;46289;51.992;4.498;2023-04-15T10:18:53;101740.63;;;15.80;43.36
60437;BME280;46289;51.992;4.498;2023-04-15T10:20:59;101751.13;;;15.44;43.25
60437;BME280;46289;51.992;4.498;2023-04-15T10:23:05;101745.75;;;15.27;44.59
60437;BME280;46289;51.992;4.498;2023-04-15T10:25:14;101749.03;;;15.32;44.90
60437;BME280;46289;51.992;4.498;2023-04-15T10:27:20;101754.09;;;15.76;44.32
60437;BME280;46289;51.992;4.498;2023-04-15T10:29:25;101750.34;;;15.42;44.85
60437;BME280;46289;51.992;4.498;2023-04-15T10:31:30;101752.25;;;15.95;44.27
60437;BME280;46289;51.992;4.498;2023-04-15T10:33:41;101745.84;;;16.01;45.05
60437;BME280;46289;51.992;4.498;2023-04-15T10:35:50;101751.34;;;15.96;44.54
60437;BME280;46289;51.992;4.498;2023-04-15T10:37:55;101763.53;;;15.82;44.69
60437;BME280;46289;51.992;4.498;2023-04-15T10:40:00;101758.66;;;16.45;44.26
60437;BME280;46289;51.992;4.498;2023-04-15T10:42:33;101751.16;;;16.53;43.73
60437;BME280;46289;51.992;4.498;2023-04-15T10:44:41;101756.47;;;16.36;44.97
60437;BME280;46289;51.992;4.498;2023-04-15T10:46:47;101762.63;;;16.71;42.50
60437;BME280;46289;51.992;4.498;2023-04-15T10:48:52;101765.22;;;16.55;40.92
60437;BME280;46289;51.992;4.498;2023-04-15T10:51:02;101759.59;;;16.44;41.73
60437;BME280;46289;51.992;4.498;2023-04-15T10:53:09;101765.25;;;16.19;42.41
60437;BME280;46289;51.992;4.498;2023-04-15T10:55:19;101768.97;;;16.34;42.88
60437;BME280;46289;51.992;4.498;2023-04-15T10:57:33;101768.03;;;16.87;42.50
60437;BME280;46289;51.992;4.498;2023-04-15T10:59:59;101771.00;;;16.63;40.80
60437;BME280;46289;51.992;4.498;2023-04-15T11:02:06;101762.78;;;16.33;42.30
60437;BME280;46289;51.992;4.498;2023-04-15T11:04:12;101780.75;;;16.63;42.81
60437;BME280;46289;51.992;4.498;2023-04-15T11:06:44;101779.25;;;17.09;41.95
60437;BME280;46289;51.992;4.498;2023-04-15T11:08:55;101780.59;;;17.01;41.42
60437;BME280;46289;51.992;4.498;2023-04-15T11:11:06;101780.97;;;16.58;42.48